createdAt,value
2023-02-01T00:01:12.101Z,75.24
2023-02-01T00:03:38.760Z,75.27
2023-02-01T00:06:05.501Z,75.75
2023-02-01T00:08:33.230Z,75.78
2023-02-01T00:11:04.346Z,75.23
2023-02-01T00:13:32.604Z,75.43
2023-02-01T00:16:08.042Z,75.53
2023-02-01T00:18:35.061Z,75.29
2023-02-01T00:21:02.393Z,75.24
2023-02-01T00:23:29.052Z,75.04
2023-02-01T00:25:55.606Z,74.84
2023-02-01T00:28:22.209Z,74.61
2023-02-01T00:30:57.831Z,75.22
2023-02-01T00:33:24.948Z,76.10
2023-02-01T00:35:51.655Z,75.93
2023-02-01T00:38:18.263Z,75.97
2023-02-01T00:40:48.129Z,75.66
2023-02-01T00:43:14.677Z,75.33
2023-02-01T00:45:41.273Z,75.07
2023-02-01T00:48:07.848Z,76.03
2023-02-01T00:50:34.501Z,76.07
2023-02-01T00:53:03.332Z,75.48
2023-02-01T00:55:29.879Z,75.57
2023-02-01T00:57:56.776Z,76.44
2023-02-01T01:00:23.737Z,75.57
2023-02-01T01:02:50.457Z,76.53
2023-02-01T01:05:17.147Z,75.96
2023-02-01T01:07:43.736Z,75.42
2023-02-01T01:10:10.827Z,75.71
2023-02-01T01:12:37.394Z,75.59
2023-02-01T01:15:05.962Z,76.04
2023-02-01T01:17:32.994Z,75.59
2023-02-01T01:20:00.064Z,75.98
2023-02-01T01:22:26.761Z,75.76
2023-02-01T01:24:53.480Z,76.63
2023-02-01T01:27:24.427Z,76.07
2023-02-01T01:29:51.319Z,76.20
2023-02-01T01:32:17.880Z,75.84
2023-02-01T01:34:44.501Z,76.17
2023-02-01T01:37:11.115Z,75.63
2023-02-01T01:39:38.595Z,75.83
2023-02-01T01:42:05.181Z,75.97
2023-02-01T01:45:06.616Z,75.56
2023-02-01T01:47:45.687Z,76.33
2023-02-01T01:50:17.991Z,76.62
2023-02-01T01:52:47.619Z,76.53
2023-02-01T01:55:17.823Z,76.13
2023-02-01T01:57:51.178Z,76.54
2023-02-01T02:00:20.892Z,76.60
2023-02-01T02:02:53.553Z,76.43
2023-02-01T02:05:21.028Z,76.13
2023-02-01T02:07:51.035Z,76.55
2023-02-01T02:10:18.916Z,76.83
2023-02-01T02:12:49.129Z,76.51
2023-02-01T02:15:17.875Z,76.66
2023-02-01T02:18:02.707Z,76.00
2023-02-01T02:20:47.717Z,76.50
2023-02-01T02:23:44.393Z,76.79
2023-02-01T02:26:27.773Z,76.08
2023-02-01T02:29:33.225Z,76.83
2023-02-01T02:32:38.110Z,76.34
2023-02-01T02:35:29.309Z,76.32
2023-02-01T02:38:27.100Z,76.01
2023-02-01T02:41:13.467Z,76.84
2023-02-01T02:44:07.639Z,76.85
2023-02-01T02:47:02.237Z,76.22
2023-02-01T02:50:27.886Z,76.79
2023-02-01T02:53:31.472Z,76.89
2023-02-01T02:56:18.407Z,76.21
2023-02-01T02:59:06.536Z,76.84
2023-02-01T03:01:52.689Z,76.30
2023-02-01T03:04:19.508Z,76.61
2023-02-01T03:06:46.659Z,77.41
2023-02-01T03:09:21.996Z,77.32
2023-02-01T03:12:11.993Z,77.36
2023-02-01T03:14:45.690Z,77.71
2023-02-01T03:17:16.784Z,76.61
2023-02-01T03:19:51.919Z,76.92
2023-02-01T03:22:23.178Z,76.91
2023-02-01T03:24:59.595Z,77.25
2023-02-01T03:27:35.070Z,76.79
2023-02-01T03:30:18.956Z,76.76
2023-02-01T03:33:01.999Z,76.81
2023-02-01T03:35:36.020Z,77.49
2023-02-01T03:38:11.789Z,77.47
2023-02-01T03:40:41.056Z,77.64
2023-02-01T03:43:15.767Z,77.53
2023-02-01T03:45:48.612Z,77.31
2023-02-01T03:48:17.277Z,77.14
2023-02-01T03:50:50.387Z,76.91
2023-02-01T03:53:21.455Z,77.28
2023-02-01T03:55:48.516Z,77.08
2023-02-01T03:58:20.591Z,77.34
2023-02-01T04:00:52.865Z,77.03
2023-02-01T04:03:19.584Z,77.54
2023-02-01T04:05:46.973Z,76.85
2023-02-01T04:08:13.606Z,77.02
2023-02-01T04:10:40.246Z,77.38
2023-02-01T04:13:07.618Z,77.71
2023-02-01T04:15:35.688Z,77.78
2023-02-01T04:18:02.848Z,77.08
2023-02-01T04:20:29.565Z,77.07
2023-02-01T04:22:56.189Z,77.48
2023-02-01T04:25:22.818Z,76.67
2023-02-01T04:27:49.554Z,77.65
2023-02-01T04:30:16.452Z,77.58
2023-02-01T04:32:43.070Z,77.06
2023-02-01T04:35:10.800Z,77.02
2023-02-01T04:37:37.368Z,77.64
2023-02-01T04:40:08.797Z,77.59
2023-02-01T04:42:35.653Z,76.96
2023-02-01T04:45:02.446Z,77.20
2023-02-01T04:47:29.030Z,76.91
2023-02-01T04:49:57.362Z,77.57
2023-02-01T04:52:23.916Z,77.36
2023-02-01T04:54:50.542Z,76.77
2023-02-01T04:57:17.121Z,77.16
2023-02-01T04:59:43.736Z,77.10
2023-02-01T05:02:10.400Z,77.76
2023-02-01T05:04:37.068Z,77.51
2023-02-01T05:07:03.748Z,78.06
2023-02-01T05:09:30.334Z,77.72
2023-02-01T05:12:16.489Z,77.76
2023-02-01T05:14:43.150Z,77.23
2023-02-01T05:17:09.745Z,78.14
2023-02-01T05:19:36.432Z,78.09
2023-02-01T05:22:02.990Z,78.11
2023-02-01T05:24:29.665Z,78.19
2023-02-01T05:26:56.712Z,77.46
2023-02-01T05:29:23.347Z,78.18
